首页
METAR-TAF:

METAR-TAF

机场 :

Northolt, 英格兰

纬度: 51-33N, 经度: 000-25W, 海拔: 38米

当前天气观测

该预报发布于1小时和1分钟前的02:50 UTC
风速7节,风向西转西北
温度 14°C
湿度 88%
气压 1009 hPa
能见度10公里或以上

METAR: EGWU 200250Z AUTO 29007KT 9999 // OVC060/// 14/12 Q1009

时间: 04:51 (03:51 UTC)

预报

该预报发布于8小时和12分钟前的19:39 UTC
预报有效从19日的 21点(UTC)到 20日的 15点(UTC)
风速5节,风向西转西南
能见度10公里或以上
散云层高于3000英尺
几率 30%
从 20日的 05点(UTC)到 20日的 07点(UTC)
散云层高于1200英尺
短暂存在
从 20日的 12点(UTC)到 20日的 15点(UTC)
能見度: 6000
阵雨

TAF: EGWU 191939Z 1921/2015 25005KT 9999 SCT030 PROB30 2005/2007 SCT012 TEMPO 2012/2015 6000 SHRA

超过4000个机场的气象观测和天气预报(METAR&TAF报告)。

可查询的气象台以黄色和红色小点在地图上表示。

将鼠标移到小点上方,可查看气象台名称。

然后点击查看天气观测和预报。

如需切换地图:点击带黑十字的绿色按钮放大地图;点击带横线的绿色按钮缩小地图;或者点击绿色箭头查看邻近地区的地图。


METAR-TAF: